sensor_id;sensor_type;location;lat;lon;timestamp;P1;durP1;ratioP1;P2;durP2;ratioP2
84759;SDS011;74983;51.084;11.086;2024-03-06T00:02:04;45.65;;;22.13;;
84759;SDS011;74983;51.084;11.086;2024-03-06T00:04:30;46.33;;;22.48;;
84759;SDS011;74983;51.084;11.086;2024-03-06T00:06:55;42.63;;;21.43;;
84759;SDS011;74983;51.084;11.086;2024-03-06T00:09:22;44.08;;;21.20;;
84759;SDS011;74983;51.084;11.086;2024-03-06T00:11:48;48.63;;;22.13;;
84759;SDS011;74983;51.084;11.086;2024-03-06T00:14:15;46.30;;;20.95;;
84759;SDS011;74983;51.084;11.086;2024-03-06T00:16:42;40.15;;;21.30;;
84759;SDS011;74983;51.084;11.086;2024-03-06T00:19:07;45.72;;;22.35;;
84759;SDS011;74983;51.084;11.086;2024-03-06T00:21:33;47.90;;;21.43;;
84759;SDS011;74983;51.084;11.086;2024-03-06T00:23:58;48.70;;;22.13;;
84759;SDS011;74983;51.084;11.086;2024-03-06T00:26:23;38.73;;;20.83;;
84759;SDS011;74983;51.084;11.086;2024-03-06T00:28:48;41.07;;;20.30;;
84759;SDS011;74983;51.084;11.086;2024-03-06T00:31:13;45.07;;;21.47;;
84759;SDS011;74983;51.084;11.086;2024-03-06T00:33:40;47.43;;;22.97;;
84759;SDS011;74983;51.084;11.086;2024-03-06T00:36:05;44.92;;;21.27;;
84759;SDS011;74983;51.084;11.086;2024-03-06T00:38:31;42.17;;;22.85;;
84759;SDS011;74983;51.084;11.086;2024-03-06T00:40:56;39.97;;;21.07;;
84759;SDS011;74983;51.084;11.086;2024-03-06T00:43:22;44.28;;;19.98;;
84759;SDS011;74983;51.084;11.086;2024-03-06T00:45:48;42.60;;;20.40;;
84759;SDS011;74983;51.084;11.086;2024-03-06T00:48:13;45.27;;;20.53;;
84759;SDS011;74983;51.084;11.086;2024-03-06T00:50:38;42.80;;;20.57;;
84759;SDS011;74983;51.084;11.086;2024-03-06T00:53:03;36.53;;;19.53;;
84759;SDS011;74983;51.084;11.086;2024-03-06T00:55:29;39.63;;;21.10;;
84759;SDS011;74983;51.084;11.086;2024-03-06T00:57:54;39.37;;;20.67;;
84759;SDS011;74983;51.084;11.086;2024-03-06T01:00:20;40.53;;;18.97;;
84759;SDS011;74983;51.084;11.086;2024-03-06T01:02:45;41.90;;;20.70;;
84759;SDS011;74983;51.084;11.086;2024-03-06T01:05:10;41.73;;;19.70;;
84759;SDS011;74983;51.084;11.086;2024-03-06T01:07:38;40.13;;;21.37;;
84759;SDS011;74983;51.084;11.086;2024-03-06T01:10:04;36.78;;;19.45;;
84759;SDS011;74983;51.084;11.086;2024-03-06T01:12:34;47.75;;;20.92;;
84759;SDS011;74983;51.084;11.086;2024-03-06T01:14:59;41.33;;;21.25;;
84759;SDS011;74983;51.084;11.086;2024-03-06T01:17:24;40.87;;;20.80;;
84759;SDS011;74983;51.084;11.086;2024-03-06T01:19:50;39.27;;;19.33;;
84759;SDS011;74983;51.084;11.086;2024-03-06T01:22:15;40.28;;;20.50;;
84759;SDS011;74983;51.084;11.086;2024-03-06T01:24:41;39.40;;;20.43;;
84759;SDS011;74983;51.084;11.086;2024-03-06T01:27:06;43.80;;;21.23;;
84759;SDS011;74983;51.084;11.086;2024-03-06T01:29:31;37.43;;;19.73;;
84759;SDS011;74983;51.084;11.086;2024-03-06T01:31:57;38.22;;;19.17;;
84759;SDS011;74983;51.084;11.086;2024-03-06T01:34:23;35.58;;;18.80;;
84759;SDS011;74983;51.084;11.086;2024-03-06T01:36:49;44.60;;;20.48;;
84759;SDS011;74983;51.084;11.086;2024-03-06T01:39:15;43.77;;;19.53;;
84759;SDS011;74983;51.084;11.086;2024-03-06T01:41:46;40.63;;;18.47;;
84759;SDS011;74983;51.084;11.086;2024-03-06T01:44:12;40.22;;;18.83;;
84759;SDS011;74983;51.084;11.086;2024-03-06T01:46:39;35.85;;;18.80;;
84759;SDS011;74983;51.084;11.086;2024-03-06T01:49:04;37.97;;;18.60;;
84759;SDS011;74983;51.084;11.086;2024-03-06T01:51:30;34.67;;;17.92;;
84759;SDS011;74983;51.084;11.086;2024-03-06T01:53:56;33.60;;;18.08;;
84759;SDS011;74983;51.084;11.086;2024-03-06T01:56:22;37.80;;;18.42;;
84759;SDS011;74983;51.084;11.086;2024-03-06T01:58:48;39.67;;;17.67;;
84759;SDS011;74983;51.084;11.086;2024-03-06T02:01:14;33.08;;;17.73;;
84759;SDS011;74983;51.084;11.086;2024-03-06T02:03:41;43.03;;;20.13;;
84759;SDS011;74983;51.084;11.086;2024-03-06T02:06:07;40.65;;;20.35;;
84759;SDS011;74983;51.084;11.086;2024-03-06T02:08:35;43.03;;;19.88;;
84759;SDS011;74983;51.084;11.086;2024-03-06T02:11:00;42.40;;;21.17;;
84759;SDS011;74983;51.084;11.086;2024-03-06T02:13:27;36.22;;;20.00;;
84759;SDS011;74983;51.084;11.086;2024-03-06T02:15:52;37.20;;;19.03;;
84759;SDS011;74983;51.084;11.086;2024-03-06T02:18:17;36.90;;;18.37;;
84759;SDS011;74983;51.084;11.086;2024-03-06T02:20:43;38.53;;;18.97;;
84759;SDS011;74983;51.084;11.086;2024-03-06T02:23:08;39.83;;;20.10;;
84759;SDS011;74983;51.084;11.086;2024-03-06T02:25:33;35.53;;;18.43;;
84759;SDS011;74983;51.084;11.086;2024-03-06T02:27:58;40.33;;;20.30;;
84759;SDS011;74983;51.084;11.086;2024-03-06T02:30:24;39.80;;;20.00;;
84759;SDS011;74983;51.084;11.086;2024-03-06T02:32:49;31.00;;;18.60;;
84759;SDS011;74983;51.084;11.086;2024-03-06T02:35:14;39.80;;;19.10;;
84759;SDS011;74983;51.084;11.086;2024-03-06T02:37:43;39.33;;;18.35;;
84759;SDS011;74983;51.084;11.086;2024-03-06T02:40:09;37.45;;;17.33;;
84759;SDS011;74983;51.084;11.086;2024-03-06T02:42:35;31.55;;;16.70;;
84759;SDS011;74983;51.084;11.086;2024-03-06T02:45:01;35.97;;;20.23;;
84759;SDS011;74983;51.084;11.086;2024-03-06T02:47:26;33.27;;;18.07;;
84759;SDS011;74983;51.084;11.086;2024-03-06T02:49:51;34.27;;;18.00;;
84759;SDS011;74983;51.084;11.086;2024-03-06T02:52:16;34.87;;;18.33;;
84759;SDS011;74983;51.084;11.086;2024-03-06T02:54:42;36.00;;;17.42;;
84759;SDS011;74983;51.084;11.086;2024-03-06T02:57:07;36.90;;;16.70;;
84759;SDS011;74983;51.084;11.086;2024-03-06T02:59:33;29.38;;;16.20;;
84759;SDS011;74983;51.084;11.086;2024-03-06T03:01:58;28.17;;;16.30;;
84759;SDS011;74983;51.084;11.086;2024-03-06T03:04:23;31.63;;;17.27;;
84759;SDS011;74983;51.084;11.086;2024-03-06T03:06:48;30.33;;;15.30;;
84759;SDS011;74983;51.084;11.086;2024-03-06T03:09:14;30.03;;;14.93;;
84759;SDS011;74983;51.084;11.086;2024-03-06T03:11:39;33.37;;;16.27;;
84759;SDS011;74983;51.084;11.086;2024-03-06T03:14:04;27.30;;;14.53;;
84759;SDS011;74983;51.084;11.086;2024-03-06T03:16:29;28.67;;;15.40;;
84759;SDS011;74983;51.084;11.086;2024-03-06T03:18:55;30.67;;;15.60;;
84759;SDS011;74983;51.084;11.086;2024-03-06T03:21:20;28.08;;;15.23;;
84759;SDS011;74983;51.084;11.086;2024-03-06T03:23:46;30.50;;;15.68;;
84759;SDS011;74983;51.084;11.086;2024-03-06T03:26:11;27.50;;;14.10;;
84759;SDS011;74983;51.084;11.086;2024-03-06T03:28:39;26.17;;;15.03;;
84759;SDS011;74983;51.084;11.086;2024-03-06T03:31:08;31.17;;;16.65;;
84759;SDS011;74983;51.084;11.086;2024-03-06T03:33:39;26.25;;;14.07;;
84759;SDS011;74983;51.084;11.086;2024-03-06T03:36:06;24.30;;;13.63;;
84759;SDS011;74983;51.084;11.086;2024-03-06T03:38:32;26.75;;;14.55;;
84759;SDS011;74983;51.084;11.086;2024-03-06T03:41:00;29.83;;;16.15;;
84759;SDS011;74983;51.084;11.086;2024-03-06T03:43:26;29.60;;;14.63;;
84759;SDS011;74983;51.084;11.086;2024-03-06T03:45:51;27.33;;;14.43;;
84759;SDS011;74983;51.084;11.086;2024-03-06T03:48:16;28.27;;;14.00;;
84759;SDS011;74983;51.084;11.086;2024-03-06T03:50:41;26.73;;;13.90;;
84759;SDS011;74983;51.084;11.086;2024-03-06T03:53:07;32.07;;;13.83;;
84759;SDS011;74983;51.084;11.086;2024-03-06T03:55:32;20.67;;;11.73;;
84759;SDS011;74983;51.084;11.086;2024-03-06T03:57:58;25.85;;;13.07;;
84759;SDS011;74983;51.084;11.086;2024-03-06T04:00:23;28.57;;;14.13;;
84759;SDS011;74983;51.084;11.086;2024-03-06T04:02:48;23.77;;;13.00;;
84759;SDS011;74983;51.084;11.086;2024-03-06T04:05:14;26.00;;;13.97;;
84759;SDS011;74983;51.084;11.086;2024-03-06T04:07:39;27.88;;;14.20;;
84759;SDS011;74983;51.084;11.086;2024-03-06T04:10:05;20.35;;;12.57;;
84759;SDS011;74983;51.084;11.086;2024-03-06T04:12:31;23.70;;;13.32;;
84759;SDS011;74983;51.084;11.086;2024-03-06T04:14:56;25.97;;;13.27;;
84759;SDS011;74983;51.084;11.086;2024-03-06T04:17:22;28.20;;;14.33;;
84759;SDS011;74983;51.084;11.086;2024-03-06T04:19:47;25.27;;;15.17;;
84759;SDS011;74983;51.084;11.086;2024-03-06T04:22:13;20.60;;;11.52;;
84759;SDS011;74983;51.084;11.086;2024-03-06T04:24:40;25.65;;;13.50;;
84759;SDS011;74983;51.084;11.086;2024-03-06T04:27:06;30.40;;;13.48;;
84759;SDS011;74983;51.084;11.086;2024-03-06T04:29:32;24.25;;;11.98;;
84759;SDS011;74983;51.084;11.086;2024-03-06T04:31:57;24.03;;;12.67;;
84759;SDS011;74983;51.084;11.086;2024-03-06T04:34:23;26.23;;;13.57;;
84759;SDS011;74983;51.084;11.086;2024-03-06T04:36:48;22.00;;;12.23;;
84759;SDS011;74983;51.084;11.086;2024-03-06T04:39:13;24.77;;;13.40;;
84759;SDS011;74983;51.084;11.086;2024-03-06T04:41:39;24.48;;;12.25;;
84759;SDS011;74983;51.084;11.086;2024-03-06T04:44:05;23.57;;;13.20;;
84759;SDS011;74983;51.084;11.086;2024-03-06T04:46:30;28.50;;;13.70;;
84759;SDS011;74983;51.084;11.086;2024-03-06T04:48:55;30.47;;;13.73;;
84759;SDS011;74983;51.084;11.086;2024-03-06T04:51:20;22.70;;;12.87;;
84759;SDS011;74983;51.084;11.086;2024-03-06T04:53:46;26.20;;;13.43;;
84759;SDS011;74983;51.084;11.086;2024-03-06T04:56:11;23.80;;;13.13;;
84759;SDS011;74983;51.084;11.086;2024-03-06T04:58:37;25.92;;;13.75;;
84759;SDS011;74983;51.084;11.086;2024-03-06T05:01:03;25.40;;;13.77;;
84759;SDS011;74983;51.084;11.086;2024-03-06T05:03:31;26.60;;;12.20;;
84759;SDS011;74983;51.084;11.086;2024-03-06T05:05:56;26.77;;;13.93;;
84759;SDS011;74983;51.084;11.086;2024-03-06T05:08:22;26.08;;;13.60;;
84759;SDS011;74983;51.084;11.086;2024-03-06T05:10:47;26.30;;;13.20;;
84759;SDS011;74983;51.084;11.086;2024-03-06T05:13:12;28.47;;;13.30;;
84759;SDS011;74983;51.084;11.086;2024-03-06T05:15:38;21.40;;;11.80;;
84759;SDS011;74983;51.084;11.086;2024-03-06T05:18:04;30.80;;;15.52;;
84759;SDS011;74983;51.084;11.086;2024-03-06T05:20:30;29.30;;;14.90;;
84759;SDS011;74983;51.084;11.086;2024-03-06T05:22:56;24.67;;;12.52;;
84759;SDS011;74983;51.084;11.086;2024-03-06T05:25:21;25.17;;;14.15;;
84759;SDS011;74983;51.084;11.086;2024-03-06T05:27:46;24.47;;;14.40;;
84759;SDS011;74983;51.084;11.086;2024-03-06T05:30:12;20.77;;;12.47;;
84759;SDS011;74983;51.084;11.086;2024-03-06T05:32:37;30.95;;;14.15;;
84759;SDS011;74983;51.084;11.086;2024-03-06T05:35:03;28.93;;;14.93;;
84759;SDS011;74983;51.084;11.086;2024-03-06T05:37:28;23.55;;;13.15;;
84759;SDS011;74983;51.084;11.086;2024-03-06T05:39:54;32.13;;;14.83;;
84759;SDS011;74983;51.084;11.086;2024-03-06T05:42:19;27.27;;;14.50;;
84759;SDS011;74983;51.084;11.086;2024-03-06T05:44:44;25.03;;;13.20;;
84759;SDS011;74983;51.084;11.086;2024-03-06T05:47:10;25.75;;;14.10;;
84759;SDS011;74983;51.084;11.086;2024-03-06T05:49:35;26.93;;;14.10;;
84759;SDS011;74983;51.084;11.086;2024-03-06T05:52:00;27.07;;;13.67;;
84759;SDS011;74983;51.084;11.086;2024-03-06T05:54:25;29.57;;;14.37;;
84759;SDS011;74983;51.084;11.086;2024-03-06T05:56:52;27.27;;;14.70;;
84759;SDS011;74983;51.084;11.086;2024-03-06T05:59:18;27.40;;;15.82;;
84759;SDS011;74983;51.084;11.086;2024-03-06T06:01:44;26.63;;;12.70;;
84759;SDS011;74983;51.084;11.086;2024-03-06T06:04:10;29.92;;;13.52;;
84759;SDS011;74983;51.084;11.086;2024-03-06T06:06:36;25.48;;;14.32;;
84759;SDS011;74983;51.084;11.086;2024-03-06T06:09:01;24.95;;;13.50;;
84759;SDS011;74983;51.084;11.086;2024-03-06T06:11:29;25.88;;;13.93;;
84759;SDS011;74983;51.084;11.086;2024-03-06T06:13:55;27.00;;;13.37;;
84759;SDS011;74983;51.084;11.086;2024-03-06T06:16:20;23.73;;;11.83;;
84759;SDS011;74983;51.084;11.086;2024-03-06T06:18:45;26.47;;;12.50;;
84759;SDS011;74983;51.084;11.086;2024-03-06T06:21:11;26.77;;;13.52;;
84759;SDS011;74983;51.084;11.086;2024-03-06T06:23:36;27.37;;;13.33;;
84759;SDS011;74983;51.084;11.086;2024-03-06T06:26:01;28.90;;;13.87;;
84759;SDS011;74983;51.084;11.086;2024-03-06T06:28:27;24.67;;;12.40;;
84759;SDS011;74983;51.084;11.086;2024-03-06T06:30:52;26.77;;;14.75;;
84759;SDS011;74983;51.084;11.086;2024-03-06T06:33:18;29.77;;;14.60;;
84759;SDS011;74983;51.084;11.086;2024-03-06T06:35:44;22.35;;;12.55;;
84759;SDS011;74983;51.084;11.086;2024-03-06T06:38:09;26.47;;;14.63;;
84759;SDS011;74983;51.084;11.086;2024-03-06T06:40:34;24.10;;;12.13;;
84759;SDS011;74983;51.084;11.086;2024-03-06T06:43:01;30.75;;;14.65;;
84759;SDS011;74983;51.084;11.086;2024-03-06T06:45:26;26.98;;;12.13;;
84759;SDS011;74983;51.084;11.086;2024-03-06T06:47:51;29.63;;;13.03;;
84759;SDS011;74983;51.084;11.086;2024-03-06T06:50:17;27.97;;;13.87;;
84759;SDS011;74983;51.084;11.086;2024-03-06T06:52:43;23.58;;;13.18;;
84759;SDS011;74983;51.084;11.086;2024-03-06T06:55:08;26.10;;;12.20;;
84759;SDS011;74983;51.084;11.086;2024-03-06T06:57:36;23.38;;;11.48;;
84759;SDS011;74983;51.084;11.086;2024-03-06T07:00:02;28.02;;;13.68;;
84759;SDS011;74983;51.084;11.086;2024-03-06T07:02:35;27.05;;;15.13;;
84759;SDS011;74983;51.084;11.086;2024-03-06T07:05:07;25.20;;;12.90;;
84759;SDS011;74983;51.084;11.086;2024-03-06T07:07:33;24.52;;;12.23;;
84759;SDS011;74983;51.084;11.086;2024-03-06T07:09:59;26.75;;;13.05;;
84759;SDS011;74983;51.084;11.086;2024-03-06T07:12:25;19.97;;;11.57;;
84759;SDS011;74983;51.084;11.086;2024-03-06T07:14:50;20.85;;;11.27;;
84759;SDS011;74983;51.084;11.086;2024-03-06T07:17:15;20.52;;;12.50;;
84759;SDS011;74983;51.084;11.086;2024-03-06T07:19:41;17.10;;;11.50;;
84759;SDS011;74983;51.084;11.086;2024-03-06T07:22:06;19.83;;;12.03;;
84759;SDS011;74983;51.084;11.086;2024-03-06T07:24:31;19.47;;;12.30;;
84759;SDS011;74983;51.084;11.086;2024-03-06T07:26:57;23.23;;;13.17;;
84759;SDS011;74983;51.084;11.086;2024-03-06T07:29:22;24.47;;;11.17;;
84759;SDS011;74983;51.084;11.086;2024-03-06T07:31:47;27.57;;;13.77;;
84759;SDS011;74983;51.084;11.086;2024-03-06T07:34:12;22.43;;;12.87;;
84759;SDS011;74983;51.084;11.086;2024-03-06T07:36:39;25.27;;;13.30;;
84759;SDS011;74983;51.084;11.086;2024-03-06T07:39:05;26.75;;;13.95;;
84759;SDS011;74983;51.084;11.086;2024-03-06T07:41:30;23.67;;;13.43;;
84759;SDS011;74983;51.084;11.086;2024-03-06T07:43:57;26.52;;;14.18;;
84759;SDS011;74983;51.084;11.086;2024-03-06T07:46:23;25.47;;;15.13;;
84759;SDS011;74983;51.084;11.086;2024-03-06T07:48:48;22.37;;;12.23;;
84759;SDS011;74983;51.084;11.086;2024-03-06T07:51:14;23.42;;;11.95;;
84759;SDS011;74983;51.084;11.086;2024-03-06T07:53:39;33.70;;;14.63;;
84759;SDS011;74983;51.084;11.086;2024-03-06T07:56:04;20.07;;;11.00;;
84759;SDS011;74983;51.084;11.086;2024-03-06T07:58:30;27.43;;;14.20;;
84759;SDS011;74983;51.084;11.086;2024-03-06T08:00:56;25.90;;;14.10;;
84759;SDS011;74983;51.084;11.086;2024-03-06T08:03:21;21.47;;;11.57;;
84759;SDS011;74983;51.084;11.086;2024-03-06T08:05:47;24.20;;;13.05;;
84759;SDS011;74983;51.084;11.086;2024-03-06T08:08:16;25.35;;;13.25;;
84759;SDS011;74983;51.084;11.086;2024-03-06T08:10:41;24.50;;;13.73;;
84759;SDS011;74983;51.084;11.086;2024-03-06T08:13:06;26.50;;;11.10;;
84759;SDS011;74983;51.084;11.086;2024-03-06T08:15:31;25.43;;;13.33;;
84759;SDS011;74983;51.084;11.086;2024-03-06T08:17:57;23.15;;;11.80;;
84759;SDS011;74983;51.084;11.086;2024-03-06T08:20:22;24.73;;;13.70;;
84759;SDS011;74983;51.084;11.086;2024-03-06T08:22:48;25.98;;;13.13;;
84759;SDS011;74983;51.084;11.086;2024-03-06T08:25:14;30.33;;;13.82;;
84759;SDS011;74983;51.084;11.086;2024-03-06T08:27:40;24.13;;;13.03;;
84759;SDS011;74983;51.084;11.086;2024-03-06T08:30:07;21.70;;;11.80;;
84759;SDS011;74983;51.084;11.086;2024-03-06T08:32:33;28.20;;;12.80;;
84759;SDS011;74983;51.084;11.086;2024-03-06T08:35:00;26.08;;;13.10;;
84759;SDS011;74983;51.084;11.086;2024-03-06T08:37:40;25.35;;;13.45;;
84759;SDS011;74983;51.084;11.086;2024-03-06T08:40:06;25.83;;;13.73;;
84759;SDS011;74983;51.084;11.086;2024-03-06T08:42:38;22.83;;;14.40;;
84759;SDS011;74983;51.084;11.086;2024-03-06T08:45:03;25.63;;;13.30;;
84759;SDS011;74983;51.084;11.086;2024-03-06T08:47:29;23.55;;;12.80;;
84759;SDS011;74983;51.084;11.086;2024-03-06T08:49:54;22.97;;;11.80;;
84759;SDS011;74983;51.084;11.086;2024-03-06T08:52:20;24.43;;;14.17;;
84759;SDS011;74983;51.084;11.086;2024-03-06T08:54:46;24.77;;;10.73;;
84759;SDS011;74983;51.084;11.086;2024-03-06T08:57:11;19.70;;;11.80;;
84759;SDS011;74983;51.084;11.086;2024-03-06T08:59:36;25.53;;;13.13;;
84759;SDS011;74983;51.084;11.086;2024-03-06T09:02:15;25.97;;;14.87;;
84759;SDS011;74983;51.084;11.086;2024-03-06T09:04:41;25.52;;;13.75;;
84759;SDS011;74983;51.084;11.086;2024-03-06T09:07:07;29.45;;;14.27;;
84759;SDS011;74983;51.084;11.086;2024-03-06T09:09:33;21.80;;;12.35;;
84759;SDS011;74983;51.084;11.086;2024-03-06T09:12:08;24.83;;;14.57;;
84759;SDS011;74983;51.084;11.086;2024-03-06T09:14:39;33.17;;;17.20;;
84759;SDS011;74983;51.084;11.086;2024-03-06T09:17:06;26.00;;;15.00;;
84759;SDS011;74983;51.084;11.086;2024-03-06T09:19:34;27.58;;;16.02;;
84759;SDS011;74983;51.084;11.086;2024-03-06T09:21:59;29.47;;;17.30;;
84759;SDS011;74983;51.084;11.086;2024-03-06T09:24:25;28.70;;;16.33;;
84759;SDS011;74983;51.084;11.086;2024-03-06T09:26:51;28.52;;;15.52;;
84759;SDS011;74983;51.084;11.086;2024-03-06T09:29:17;27.05;;;14.90;;
84759;SDS011;74983;51.084;11.086;2024-03-06T09:31:42;30.50;;;15.77;;
84759;SDS011;74983;51.084;11.086;2024-03-06T09:34:08;27.63;;;15.52;;
84759;SDS011;74983;51.084;11.086;2024-03-06T09:36:40;29.58;;;14.38;;
84759;SDS011;74983;51.084;11.086;2024-03-06T09:39:10;28.70;;;17.15;;
84759;SDS011;74983;51.084;11.086;2024-03-06T09:41:41;29.90;;;16.95;;
84759;SDS011;74983;51.084;11.086;2024-03-06T09:44:07;29.60;;;16.15;;
84759;SDS011;74983;51.084;11.086;2024-03-06T09:46:35;30.35;;;17.75;;
84759;SDS011;74983;51.084;11.086;2024-03-06T09:49:01;27.85;;;16.33;;
84759;SDS011;74983;51.084;11.086;2024-03-06T09:51:27;30.25;;;17.58;;
84759;SDS011;74983;51.084;11.086;2024-03-06T09:53:53;29.13;;;15.32;;
84759;SDS011;74983;51.084;11.086;2024-03-06T09:56:18;26.83;;;15.70;;
84759;SDS011;74983;51.084;11.086;2024-03-06T09:58:44;31.15;;;16.60;;
84759;SDS011;74983;51.084;11.086;2024-03-06T10:01:10;27.05;;;15.98;;
84759;SDS011;74983;51.084;11.086;2024-03-06T10:03:37;28.50;;;16.98;;
84759;SDS011;74983;51.084;11.086;2024-03-06T10:06:05;32.33;;;18.38;;
84759;SDS011;74983;51.084;11.086;2024-03-06T10:08:32;27.98;;;15.80;;
84759;SDS011;74983;51.084;11.086;2024-03-06T10:10:57;26.77;;;15.77;;
84759;SDS011;74983;51.084;11.086;2024-03-06T10:13:26;27.20;;;14.93;;
84759;SDS011;74983;51.084;11.086;2024-03-06T10:15:59;26.63;;;14.77;;
84759;SDS011;74983;51.084;11.086;2024-03-06T10:18:26;24.70;;;15.50;;
84759;SDS011;74983;51.084;11.086;2024-03-06T10:20:52;27.33;;;15.77;;
84759;SDS011;74983;51.084;11.086;2024-03-06T10:23:18;29.17;;;14.73;;
84759;SDS011;74983;51.084;11.086;2024-03-06T10:25:44;29.77;;;15.50;;
84759;SDS011;74983;51.084;11.086;2024-03-06T10:28:12;25.40;;;14.23;;
84759;SDS011;74983;51.084;11.086;2024-03-06T10:30:38;27.43;;;15.63;;
84759;SDS011;74983;51.084;11.086;2024-03-06T10:33:08;25.77;;;15.00;;
84759;SDS011;74983;51.084;11.086;2024-03-06T10:35:34;27.60;;;15.85;;
84759;SDS011;74983;51.084;11.086;2024-03-06T10:40:37;26.27;;;15.55;;
84759;SDS011;74983;51.084;11.086;2024-03-06T10:43:03;25.63;;;15.73;;
84759;SDS011;74983;51.084;11.086;2024-03-06T10:48:19;26.38;;;16.20;;
84759;SDS011;74983;51.084;11.086;2024-03-06T10:50:45;25.73;;;15.63;;
84759;SDS011;74983;51.084;11.086;2024-03-06T10:53:13;26.77;;;15.77;;
84759;SDS011;74983;51.084;11.086;2024-03-06T10:55:40;27.50;;;15.52;;
84759;SDS011;74983;51.084;11.086;2024-03-06T10:58:09;25.45;;;14.93;;
84759;SDS011;74983;51.084;11.086;2024-03-06T11:00:36;27.27;;;15.65;;
84759;SDS011;74983;51.084;11.086;2024-03-06T11:03:04;25.23;;;15.38;;
84759;SDS011;74983;51.084;11.086;2024-03-06T11:05:33;27.92;;;15.43;;
84759;SDS011;74983;51.084;11.086;2024-03-06T11:08:00;29.52;;;17.27;;
84759;SDS011;74983;51.084;11.086;2024-03-06T11:10:31;30.23;;;15.73;;
84759;SDS011;74983;51.084;11.086;2024-03-06T11:12:58;30.02;;;16.58;;
84759;SDS011;74983;51.084;11.086;2024-03-06T11:15:23;26.40;;;14.57;;
84759;SDS011;74983;51.084;11.086;2024-03-06T11:17:49;28.80;;;14.30;;
84759;SDS011;74983;51.084;11.086;2024-03-06T11:20:17;27.77;;;14.07;;
84759;SDS011;74983;51.084;11.086;2024-03-06T11:28:10;25.55;;;15.20;;
84759;SDS011;74983;51.084;11.086;2024-03-06T11:30:47;24.30;;;13.90;;
84759;SDS011;74983;51.084;11.086;2024-03-06T11:33:16;25.33;;;15.15;;
84759;SDS011;74983;51.084;11.086;2024-03-06T11:35:41;26.50;;;15.75;;
84759;SDS011;74983;51.084;11.086;2024-03-06T11:38:09;26.27;;;14.43;;
84759;SDS011;74983;51.084;11.086;2024-03-06T11:40:42;22.70;;;14.20;;
84759;SDS011;74983;51.084;11.086;2024-03-06T11:43:22;26.60;;;14.57;;
84759;SDS011;74983;51.084;11.086;2024-03-06T11:45:51;25.73;;;15.45;;
84759;SDS011;74983;51.084;11.086;2024-03-06T11:48:17;28.90;;;16.33;;
84759;SDS011;74983;51.084;11.086;2024-03-06T11:50:45;28.33;;;16.30;;
84759;SDS011;74983;51.084;11.086;2024-03-06T11:53:11;25.00;;;14.43;;
84759;SDS011;74983;51.084;11.086;2024-03-06T11:55:37;26.20;;;13.88;;
84759;SDS011;74983;51.084;11.086;2024-03-06T11:58:03;30.60;;;16.33;;
84759;SDS011;74983;51.084;11.086;2024-03-06T12:00:29;24.73;;;14.60;;
84759;SDS011;74983;51.084;11.086;2024-03-06T12:02:55;31.05;;;14.80;;
84759;SDS011;74983;51.084;11.086;2024-03-06T12:05:21;29.40;;;14.67;;
84759;SDS011;74983;51.084;11.086;2024-03-06T12:07:48;23.20;;;11.93;;
84759;SDS011;74983;51.084;11.086;2024-03-06T12:10:16;25.42;;;15.27;;
84759;SDS011;74983;51.084;11.086;2024-03-06T12:12:42;20.88;;;12.63;;
84759;SDS011;74983;51.084;11.086;2024-03-06T12:15:09;24.98;;;13.25;;
84759;SDS011;74983;51.084;11.086;2024-03-06T12:17:45;28.15;;;14.05;;
84759;SDS011;74983;51.084;11.086;2024-03-06T12:22:43;26.27;;;13.20;;
84759;SDS011;74983;51.084;11.086;2024-03-06T12:25:22;22.63;;;15.05;;
84759;SDS011;74983;51.084;11.086;2024-03-06T12:27:48;25.40;;;13.50;;
84759;SDS011;74983;51.084;11.086;2024-03-06T12:30:17;26.60;;;13.15;;
84759;SDS011;74983;51.084;11.086;2024-03-06T12:32:59;25.67;;;13.68;;
84759;SDS011;74983;51.084;11.086;2024-03-06T12:35:29;20.60;;;11.13;;
84759;SDS011;74983;51.084;11.086;2024-03-06T12:37:54;22.30;;;11.73;;
84759;SDS011;74983;51.084;11.086;2024-03-06T12:40:20;19.03;;;11.33;;
84759;SDS011;74983;51.084;11.086;2024-03-06T12:42:45;22.20;;;12.38;;
84759;SDS011;74983;51.084;11.086;2024-03-06T12:45:11;21.75;;;12.07;;
84759;SDS011;74983;51.084;11.086;2024-03-06T12:47:40;27.60;;;13.77;;
84759;SDS011;74983;51.084;11.086;2024-03-06T12:50:06;23.50;;;12.52;;
84759;SDS011;74983;51.084;11.086;2024-03-06T12:52:32;22.80;;;13.35;;
84759;SDS011;74983;51.084;11.086;2024-03-06T12:54:59;26.08;;;13.13;;
84759;SDS011;74983;51.084;11.086;2024-03-06T12:57:24;21.80;;;13.57;;
84759;SDS011;74983;51.084;11.086;2024-03-06T12:59:49;22.43;;;10.83;;
84759;SDS011;74983;51.084;11.086;2024-03-06T13:02:15;16.77;;;10.63;;
84759;SDS011;74983;51.084;11.086;2024-03-06T13:04:40;18.27;;;10.80;;
84759;SDS011;74983;51.084;11.086;2024-03-06T13:07:05;22.30;;;10.93;;
84759;SDS011;74983;51.084;11.086;2024-03-06T13:09:30;22.37;;;12.87;;
84759;SDS011;74983;51.084;11.086;2024-03-06T13:11:56;22.53;;;10.97;;
84759;SDS011;74983;51.084;11.086;2024-03-06T13:14:21;17.33;;;11.13;;
84759;SDS011;74983;51.084;11.086;2024-03-06T13:16:46;21.07;;;11.73;;
84759;SDS011;74983;51.084;11.086;2024-03-06T13:19:11;22.83;;;11.73;;
84759;SDS011;74983;51.084;11.086;2024-03-06T13:21:37;22.10;;;12.03;;
84759;SDS011;74983;51.084;11.086;2024-03-06T13:24:02;22.17;;;12.70;;
84759;SDS011;74983;51.084;11.086;2024-03-06T13:26:28;24.48;;;12.75;;
84759;SDS011;74983;51.084;11.086;2024-03-06T13:28:53;21.83;;;12.33;;
84759;SDS011;74983;51.084;11.086;2024-03-06T13:31:18;23.93;;;11.77;;
84759;SDS011;74983;51.084;11.086;2024-03-06T13:33:43;26.47;;;14.70;;
84759;SDS011;74983;51.084;11.086;2024-03-06T13:36:09;19.93;;;11.73;;
84759;SDS011;74983;51.084;11.086;2024-03-06T13:38:34;19.60;;;11.70;;
84759;SDS011;74983;51.084;11.086;2024-03-06T13:41:00;19.90;;;11.02;;
84759;SDS011;74983;51.084;11.086;2024-03-06T13:43:27;26.00;;;13.85;;
84759;SDS011;74983;51.084;11.086;2024-03-06T13:45:53;21.88;;;12.50;;
84759;SDS011;74983;51.084;11.086;2024-03-06T13:48:19;22.58;;;12.63;;
84759;SDS011;74983;51.084;11.086;2024-03-06T13:50:44;25.67;;;13.93;;
84759;SDS011;74983;51.084;11.086;2024-03-06T13:53:11;24.20;;;12.75;;
84759;SDS011;74983;51.084;11.086;2024-03-06T13:55:36;23.52;;;12.40;;
84759;SDS011;74983;51.084;11.086;2024-03-06T13:58:01;23.47;;;12.50;;
84759;SDS011;74983;51.084;11.086;2024-03-06T14:00:27;22.63;;;13.05;;
84759;SDS011;74983;51.084;11.086;2024-03-06T14:02:52;18.70;;;11.63;;
84759;SDS011;74983;51.084;11.086;2024-03-06T14:05:18;20.03;;;11.87;;
84759;SDS011;74983;51.084;11.086;2024-03-06T14:07:49;25.95;;;13.73;;
84759;SDS011;74983;51.084;11.086;2024-03-06T14:10:14;26.90;;;14.23;;
84759;SDS011;74983;51.084;11.086;2024-03-06T14:12:41;25.60;;;14.07;;
84759;SDS011;74983;51.084;11.086;2024-03-06T14:15:07;23.08;;;13.70;;
84759;SDS011;74983;51.084;11.086;2024-03-06T14:17:37;22.30;;;12.20;;